Time;durP1;ratioP1;P1;durP2;ratioP2;P2;SDS_P1;SDS_P2;PMS_P1;PMS_P2;Temp;Humidity;BMP_temperature;BMP_pressure;BME280_temperature;BME280_humidity;BME280_pressure;Samples;Min_cycle;Max_cycle;Signal;HPM_P1;HPM_P2
2022/08/29 00:00:55;;;;;;;;;1.75;1.75;;;;;22.05;38.74;101513.03;5061341;27;47327;-85
2022/08/29 00:03:21;;;;;;;;;1.00;1.00;;;;;22.06;39.24;101511.25;5096430;27;45377;-85
2022/08/29 00:05:46;;;;;;;;;2.00;1.00;;;;;22.01;39.24;101504.44;5096526;27;45437;-85
2022/08/29 00:08:12;;;;;;;;;4.00;1.00;;;;;22.01;39.53;101504.44;5078251;27;45390;-85
2022/08/29 00:10:38;;;;;;;;;1.75;1.75;;;;;22.01;40.14;101508.91;5095974;27;46186;-85
2022/08/29 00:13:05;;;;;;;;;2.00;2.00;;;;;21.99;39.58;101511.66;5060994;27;45713;-85
2022/08/29 00:15:31;;;;;;;;;1.25;1.00;;;;;21.90;39.40;101501.63;5078170;27;45313;-85
2022/08/29 00:17:56;;;;;;;;;2.75;1.25;;;;;21.96;39.26;101513.63;5077972;27;45356;-86
2022/08/29 00:20:25;;;;;;;;;1.00;1.00;;;;;21.85;39.32;101506.38;5061030;27;48341;-85
2022/08/29 00:22:51;;;;;;;;;3.00;2.00;;;;;21.84;39.46;101502.00;5096102;27;45432;-85
2022/08/29 00:25:17;;;;;;;;;3.75;2.00;;;;;21.84;39.60;101512.63;5077490;27;45263;-85
2022/08/29 00:27:42;;;;;;;;;1.00;1.00;;;;;21.83;39.46;101506.47;5096487;27;45333;-85
2022/08/29 00:30:09;;;;;;;;;0.25;0.25;;;;;21.87;39.25;101507.13;5060872;27;47074;-86
2022/08/29 00:32:35;;;;;;;;;3.00;1.00;;;;;21.85;40.12;101514.31;5057193;28;45757;-85
2022/08/29 00:35:03;;;;;;;;;2.75;2.00;;;;;21.75;40.88;101495.53;5064325;27;45528;-85
2022/08/29 00:37:28;;;;;;;;;2.00;1.00;;;;;21.80;39.80;101503.16;5081577;27;45433;-85
2022/08/29 00:39:54;;;;;;;;;2.75;1.00;;;;;21.79;39.89;101510.28;5099212;27;46226;-85
2022/08/29 00:42:19;;;;;;;;;2.00;1.00;;;;;21.80;40.35;101509.34;5064328;27;47595;-85
2022/08/29 00:44:45;;;;;;;;;2.00;2.00;;;;;21.82;39.40;101506.56;5081525;27;45369;-85
2022/08/29 00:47:11;;;;;;;;;3.50;2.00;;;;;21.79;40.32;101506.78;5099685;27;45516;-85
2022/08/29 00:49:42;;;;;;;;;1.00;0.25;;;;;21.86;40.13;101518.69;5081316;27;46697;-84
2022/08/29 00:52:32;;;;;;;;;2.50;2.00;;;;;21.84;39.43;101505.53;5081141;27;45382;-85
2022/08/29 00:54:58;;;;;;;;;3.50;1.75;;;;;21.87;39.33;101514.22;5098710;27;45416;-85
2022/08/29 00:57:26;;;;;;;;;1.00;1.00;;;;;21.90;39.29;101511.38;5081509;27;45339;-85
2022/08/29 00:59:51;;;;;;;;;3.00;1.00;;;;;21.90;39.23;101508.72;5081260;27;46646;-85
2022/08/29 01:02:17;;;;;;;;;1.50;1.50;;;;;21.86;39.79;101510.75;5080799;27;53250;-85
2022/08/29 01:04:43;;;;;;;;;2.00;1.00;;;;;21.91;39.65;101511.28;5081475;27;45530;-86
2022/08/29 01:07:09;;;;;;;;;1.00;1.00;;;;;21.88;40.61;101505.31;5063315;27;54086;-85
2022/08/29 01:09:36;;;;;;;;;1.00;1.00;;;;;21.87;39.87;101508.94;5081071;27;46777;-85
2022/08/29 01:12:14;;;;;;;;;1.50;1.00;;;;;21.82;40.45;101502.13;5081000;27;45496;-84
2022/08/29 01:14:46;;;;;;;;;1.00;1.00;;;;;21.75;39.74;101490.22;5082974;27;45361;-86
2022/08/29 01:17:15;;;;;;;;;1.00;1.00;;;;;21.80;39.88;101501.38;5099273;27;45440;-85
2022/08/29 01:19:58;;;;;;;;;2.00;1.00;;;;;21.76;39.84;101504.31;5080735;27;45650;-86
2022/08/29 01:22:55;;;;;;;;;2.00;1.25;;;;;21.71;39.89;101501.97;5080526;27;45993;-85
2022/08/29 01:25:23;;;;;;;;;2.25;1.50;;;;;21.69;40.09;101503.84;5080770;27;45367;-85
2022/08/29 01:28:06;;;;;;;;;1.00;1.00;;;;;21.64;40.02;101506.81;5081017;27;45515;-85
2022/08/29 01:30:32;;;;;;;;;0.75;0.75;;;;;21.68;39.80;101512.75;5098859;27;45597;-85
2022/08/29 01:32:59;;;;;;;;;1.50;0.75;;;;;21.60;40.61;101497.34;5080520;27;45330;-86
2022/08/29 01:35:25;;;;;;;;;2.50;1.50;;;;;21.50;39.57;101485.63;5080810;27;45361;-85
2022/08/29 01:37:51;;;;;;;;;1.00;1.00;;;;;21.46;39.89;101489.41;5098427;27;45359;-85
2022/08/29 01:40:16;;;;;;;;;1.00;1.00;;;;;21.43;39.97;101493.09;5098641;27;46435;-85
2022/08/29 01:42:41;;;;;;;;;4.00;1.00;;;;;21.42;40.30;101509.06;5098628;27;45378;-85
2022/08/29 01:45:08;;;;;;;;;1.00;1.00;;;;;21.34;41.52;101495.44;5097545;27;45941;-85
2022/08/29 01:47:34;;;;;;;;;4.00;3.00;;;;;21.37;40.96;101500.56;5080669;27;45365;-85
2022/08/29 01:50:00;;;;;;;;;1.00;1.00;;;;;21.39;40.48;101510.09;5080143;27;46499;-85
2022/08/29 01:52:26;;;;;;;;;2.25;1.50;;;;;21.31;40.38;101493.00;5080013;27;45298;-85
2022/08/29 01:54:51;;;;;;;;;2.25;0.25;;;;;21.25;40.92;101484.50;5080089;27;45325;-84
2022/08/29 01:57:17;;;;;;;;;1.50;1.00;;;;;21.30;40.97;101493.94;5063278;27;45400;-85
2022/08/29 01:59:44;;;;;;;;;1.25;1.25;;;;;21.30;40.45;101497.44;5080160;27;45534;-85
2022/08/29 02:02:22;;;;;;;;;1.75;1.75;;;;;21.29;40.97;101501.03;5080031;27;45789;-85
2022/08/29 02:04:48;;;;;;;;;1.75;1.00;;;;;21.36;40.77;101502.38;5080348;27;45407;-85
2022/08/29 02:07:16;;;;;;;;;2.75;2.00;;;;;21.34;40.84;101496.31;5079766;27;45500;-86
2022/08/29 02:09:42;;;;;;;;;3.50;1.00;;;;;21.35;40.40;101494.50;5079968;27;48570;-85
2022/08/29 02:12:07;;;;;;;;;2.00;1.00;;;;;21.30;41.68;101478.06;5098315;27;45297;-85
2022/08/29 02:14:34;;;;;;;;;1.00;0.00;;;;;21.35;40.56;101489.22;5080075;27;45392;-85
2022/08/29 02:17:01;;;;;;;;;2.00;1.00;;;;;21.26;41.22;101474.75;5098476;27;45332;-85
2022/08/29 02:19:26;;;;;;;;;1.00;1.00;;;;;21.33;41.36;101483.16;5097852;27;45603;-85
2022/08/29 02:21:52;;;;;;;;;0.75;0.75;;;;;21.33;40.85;101491.94;5079948;27;45681;-85
2022/08/29 02:24:17;;;;;;;;;1.75;1.00;;;;;21.29;40.74;101479.84;5062987;27;45324;-85
2022/08/29 02:26:43;;;;;;;;;1.00;1.00;;;;;21.23;40.79;101481.09;5098083;27;45313;-85
2022/08/29 02:29:10;;;;;;;;;2.00;1.00;;;;;21.21;40.90;101487.41;5079842;27;46234;-85
2022/08/29 02:31:37;;;;;;;;;1.00;1.00;;;;;21.15;40.83;101479.84;5097986;27;45266;-85
2022/08/29 02:34:03;;;;;;;;;4.00;1.00;;;;;21.16;41.39;101482.41;5097798;27;45435;-85
2022/08/29 02:36:28;;;;;;;;;2.00;1.00;;;;;21.14;41.12;101473.72;5079538;27;45416;-85
2022/08/29 02:38:54;;;;;;;;;2.25;2.00;;;;;21.05;41.11;101467.19;5097187;27;69501;-85
2022/08/29 02:41:19;;;;;;;;;4.75;0.75;;;;;21.10;40.82;101482.81;5079374;27;45439;-85
2022/08/29 02:43:45;;;;;;;;;1.00;1.00;;;;;21.05;41.24;101472.47;5097824;27;51702;-86
2022/08/29 02:46:18;;;;;;;;;1.00;1.00;;;;;21.10;41.44;101487.22;5097912;27;45508;-85
2022/08/29 02:48:44;;;;;;;;;5.00;1.00;;;;;21.06;41.02;101482.13;5079067;27;47467;-85
2022/08/29 02:51:17;;;;;;;;;1.00;0.75;;;;;21.04;41.19;101480.50;5097821;27;45789;-85
2022/08/29 02:53:42;;;;;;;;;2.75;1.75;;;;;20.98;41.17;101476.44;5079531;27;45357;-85
2022/08/29 02:56:08;;;;;;;;;1.50;1.50;;;;;20.96;43.10;101477.50;5078332;27;50106;-85
2022/08/29 02:58:34;;;;;;;;;3.00;1.00;;;;;21.01;41.52;101486.84;5097560;27;45520;-86
2022/08/29 03:00:59;;;;;;;;;3.00;1.25;;;;;21.05;42.72;101476.94;5079157;27;45402;-86
2022/08/29 03:03:26;;;;;;;;;1.00;1.00;;;;;21.08;41.42;101480.25;5097224;27;45498;-85
2022/08/29 03:05:51;;;;;;;;;3.75;1.00;;;;;21.07;41.71;101480.34;5097324;27;45300;-86
2022/08/29 03:08:17;;;;;;;;;2.00;1.00;;;;;21.05;41.66;101472.47;5079224;27;46265;-85
2022/08/29 03:10:43;;;;;;;;;2.00;0.75;;;;;21.00;41.54;101465.78;5097503;27;45933;-85
2022/08/29 03:13:09;;;;;;;;;2.00;0.50;;;;;21.02;41.64;101464.75;5079071;27;45386;-86
2022/08/29 03:15:34;;;;;;;;;3.00;2.00;;;;;20.96;41.29;101458.97;5079078;27;45352;-85
2022/08/29 03:18:00;;;;;;;;;1.50;1.00;;;;;20.96;42.02;101464.25;5061904;27;47271;-85
2022/08/29 03:20:26;;;;;;;;;2.00;2.00;;;;;20.91;41.98;101466.34;5079058;27;45487;-84
2022/08/29 03:22:52;;;;;;;;;4.00;1.00;;;;;20.86;41.64;101463.97;5062012;27;45413;-85
2022/08/29 03:25:20;;;;;;;;;1.00;1.00;;;;;20.93;41.63;101473.25;5061883;27;45680;-85
2022/08/29 03:27:45;;;;;;;;;1.00;1.00;;;;;20.93;42.67;101467.97;5078876;27;46430;-85
2022/08/29 03:30:13;;;;;;;;;2.00;1.25;;;;;20.91;42.23;101468.97;5061719;27;45378;-86
2022/08/29 03:32:38;;;;;;;;;2.00;1.00;;;;;20.90;41.98;101470.78;5078208;27;45372;-85
2022/08/29 03:35:05;;;;;;;;;3.75;2.00;;;;;20.83;41.89;101459.69;5078474;27;45463;-85
2022/08/29 03:37:31;;;;;;;;;3.75;2.00;;;;;20.79;41.66;101462.66;5078687;27;47113;-85
2022/08/29 03:39:57;;;;;;;;;1.75;1.75;;;;;20.78;41.77;101459.16;5061804;27;45398;-86
2022/08/29 03:42:22;;;;;;;;;2.00;0.75;;;;;20.74;42.10;101452.31;5061789;27;45530;-85
2022/08/29 03:44:47;;;;;;;;;0.00;0.00;;;;;20.78;42.36;101468.88;5078867;27;45568;-85
2022/08/29 03:47:13;;;;;;;;;1.00;1.00;;;;;20.73;42.38;101463.00;5078833;27;45559;-85
2022/08/29 03:49:39;;;;;;;;;2.25;1.00;;;;;20.76;43.07;101465.47;5098973;27;45386;-84
2022/08/29 03:52:05;;;;;;;;;4.00;1.75;;;;;20.67;42.36;101453.63;5097101;27;45396;-85
2022/08/29 03:54:30;;;;;;;;;2.00;1.00;;;;;20.62;41.88;101450.44;5096558;27;45401;-85
2022/08/29 03:56:56;;;;;;;;;2.75;1.00;;;;;20.67;43.99;101474.78;5061496;27;47218;-85
2022/08/29 03:59:22;;;;;;;;;1.50;1.50;;;;;20.62;42.52;101461.84;5096393;27;52819;-84
2022/08/29 04:01:48;;;;;;;;;1.00;1.00;;;;;20.63;43.34;101466.19;5078734;27;45401;-85
2022/08/29 04:07:01;;;;;;;;;2.00;1.25;;;;;20.53;42.77;101466.81;5033005;28;45468;-85
2022/08/29 04:09:27;;;;;;;;;1.50;1.50;;;;;20.60;42.40;101473.44;5032988;28;45340;-85
2022/08/29 04:11:52;;;;;;;;;2.00;2.00;;;;;20.57;43.42;101470.97;5033576;28;45389;-85
2022/08/29 04:14:19;;;;;;;;;3.00;2.00;;;;;20.60;42.79;101474.31;5032946;28;59651;-85
2022/08/29 04:16:48;;;;;;;;;2.00;1.00;;;;;20.64;42.74;101482.94;5016576;28;47025;-85
2022/08/29 04:19:13;;;;;;;;;2.00;1.00;;;;;20.57;42.18;101471.81;5033177;28;45748;-86
2022/08/29 04:21:39;;;;;;;;;3.00;1.00;;;;;20.58;43.21;101470.91;5032729;28;59453;-85
2022/08/29 04:24:04;;;;;;;;;4.00;1.75;;;;;20.50;42.36;101465.19;5033293;28;45449;-85
2022/08/29 04:26:30;;;;;;;;;2.00;1.50;;;;;20.45;42.26;101454.91;5033371;28;46611;-86
2022/08/29 04:28:55;;;;;;;;;1.00;1.00;;;;;20.45;42.60;101464.63;5032903;28;63785;-85
2022/08/29 04:31:21;;;;;;;;;1.00;1.00;;;;;20.41;42.29;101461.31;5016165;28;45343;-85
2022/08/29 04:33:47;;;;;;;;;1.25;1.25;;;;;20.39;43.28;101462.34;5016418;28;45410;-85
2022/08/29 04:36:13;;;;;;;;;1.75;1.50;;;;;20.42;42.77;101468.28;5016248;28;46293;-84
2022/08/29 04:38:38;;;;;;;;;4.00;2.00;;;;;20.31;43.27;101450.41;5032624;28;50849;-85
2022/08/29 04:41:05;;;;;;;;;2.00;1.00;;;;;20.33;42.98;101457.41;5016594;28;45681;-85
2022/08/29 04:43:31;;;;;;;;;2.00;2.00;;;;;20.33;43.49;101462.69;5049199;27;45416;-85
2022/08/29 04:45:56;;;;;;;;;3.00;3.00;;;;;20.27;43.42;101464.75;5095826;27;45449;-85
2022/08/29 04:48:22;;;;;;;;;2.75;1.50;;;;;20.29;42.86;101468.16;5096102;27;45326;-85
2022/08/29 04:50:58;;;;;;;;;3.00;1.75;;;;;20.29;43.01;101481.38;5096058;27;45551;-84
2022/08/29 04:53:24;;;;;;;;;1.25;1.00;;;;;20.27;42.73;101482.41;5096283;27;45263;-85
2022/08/29 04:55:58;;;;;;;;;3.50;1.00;;;;;20.23;44.21;101478.25;5077511;27;46555;-85
2022/08/29 04:58:24;;;;;;;;;1.50;1.00;;;;;20.18;44.36;101482.94;5078027;27;45331;-85
2022/08/29 05:00:49;;;;;;;;;4.00;1.00;;;;;20.19;43.91;101488.16;5095780;27;45393;-84
2022/08/29 05:03:15;;;;;;;;;1.00;1.00;;;;;20.15;43.70;101486.63;5077669;27;45329;-85
2022/08/29 05:05:40;;;;;;;;;3.75;1.25;;;;;20.20;43.53;101495.13;5077488;27;53031;-84
2022/08/29 05:08:05;;;;;;;;;1.00;1.00;;;;;20.23;43.52;101494.97;5077100;27;56487;-85
2022/08/29 05:10:32;;;;;;;;;2.00;1.00;;;;;20.20;43.29;101492.47;5076930;27;58753;-85
2022/08/29 05:12:57;;;;;;;;;2.75;2.00;;;;;20.20;45.45;101494.28;5077762;27;45503;-85
2022/08/29 05:15:22;;;;;;;;;3.00;2.00;;;;;20.23;43.72;101502.88;5076446;27;62494;-85
2022/08/29 05:17:48;;;;;;;;;4.50;1.00;;;;;20.20;44.78;101496.91;5077001;27;52671;-85
2022/08/29 05:20:13;;;;;;;;;5.00;2.00;;;;;20.26;43.69;101509.78;5080229;27;45413;-85
2022/08/29 05:22:40;;;;;;;;;4.00;2.00;;;;;20.26;44.72;101508.00;5080890;27;45482;-85
2022/08/29 05:25:06;;;;;;;;;1.75;1.75;;;;;20.27;44.53;101520.28;5099141;27;46193;-85
2022/08/29 05:27:32;;;;;;;;;1.00;1.00;;;;;20.28;44.82;101518.47;5099041;27;45321;-85
2022/08/29 05:29:58;;;;;;;;;1.75;1.75;;;;;20.29;44.46;101521.03;5080486;27;45420;-85
2022/08/29 05:32:24;;;;;;;;;3.75;1.75;;;;;20.24;43.94;101512.50;5080690;27;45513;-85
2022/08/29 05:34:49;;;;;;;;;3.00;3.00;;;;;20.27;43.70;101519.44;5080422;27;46572;-85
2022/08/29 05:37:20;;;;;;;;;4.00;2.00;;;;;20.29;43.42;101518.38;5063612;27;45652;-82
2022/08/29 05:39:48;;;;;;;;;3.50;2.00;;;;;20.22;44.67;101518.81;5081053;27;45447;-83
2022/08/29 05:42:15;;;;;;;;;3.00;1.25;;;;;20.27;43.74;101527.34;5098763;27;45511;-83
2022/08/29 05:44:41;;;;;;;;;2.00;2.00;;;;;20.31;43.15;101532.38;5079788;27;47147;-83
2022/08/29 05:47:09;;;;;;;;;2.50;2.00;;;;;20.33;44.64;101532.28;5079245;27;73144;-83
2022/08/29 05:49:36;;;;;;;;;2.25;2.00;;;;;20.36;44.21;101540.03;5098740;27;45365;-83
2022/08/29 05:52:01;;;;;;;;;3.50;2.50;;;;;20.41;44.01;101539.78;5098635;27;45428;-83
2022/08/29 05:54:27;;;;;;;;;3.75;1.00;;;;;20.40;43.44;101543.38;5098220;27;47341;-84
2022/08/29 05:56:52;;;;;;;;;2.00;1.75;;;;;20.43;44.43;101543.16;5079433;27;63817;-83
2022/08/29 05:59:18;;;;;;;;;2.00;2.00;;;;;20.47;43.69;101545.56;5097558;27;58916;-83
2022/08/29 06:01:45;;;;;;;;;2.00;2.00;;;;;20.51;43.28;101533.03;5080347;27;45488;-84
2022/08/29 06:04:10;;;;;;;;;1.00;1.00;;;;;20.51;43.12;101530.38;5079934;27;46733;-85
2022/08/29 06:06:35;;;;;;;;;1.50;1.25;;;;;20.53;43.53;101544.34;5079738;27;55440;-85
2022/08/29 06:09:01;;;;;;;;;1.00;1.00;;;;;20.50;43.19;101539.25;5079406;27;67786;-84
2022/08/29 06:11:30;;;;;;;;;1.50;1.00;;;;;20.51;43.33;101546.25;5079688;27;45264;-84
2022/08/29 06:13:56;;;;;;;;;2.25;2.25;;;;;20.53;43.53;101536.44;5079920;27;46386;-84
2022/08/29 06:16:23;;;;;;;;;2.00;2.00;;;;;20.55;43.66;101539.81;5080134;27;45549;-84
2022/08/29 06:18:49;;;;;;;;;2.00;2.00;;;;;20.54;44.05;101540.78;5079993;27;45473;-84
2022/08/29 06:21:15;;;;;;;;;1.75;1.25;;;;;20.54;45.79;101546.06;5098286;27;45325;-84
2022/08/29 06:23:42;;;;;;;;;4.00;2.50;;;;;20.52;43.36;101547.94;5079866;27;45498;-86
2022/08/29 06:26:09;;;;;;;;;1.75;1.75;;;;;20.47;42.93;101544.72;5098013;27;45323;-84
2022/08/29 06:28:35;;;;;;;;;3.75;2.25;;;;;20.44;44.21;101547.53;5079964;27;45371;-84
2022/08/29 06:31:16;;;;;;;;;4.25;1.25;;;;;20.44;43.50;101558.13;5079067;27;45378;-85
2022/08/29 06:33:41;;;;;;;;;3.25;1.75;;;;;20.41;43.58;101558.28;5079577;27;46351;-84
2022/08/29 06:36:08;;;;;;;;;2.25;1.75;;;;;20.40;43.61;101570.66;5096931;27;70882;-84
2022/08/29 06:38:34;;;;;;;;;2.25;1.75;;;;;20.33;43.64;101557.88;5079821;27;45401;-84
2022/08/29 06:41:08;;;;;;;;;6.25;3.25;;;;;20.36;43.85;101568.28;5079632;27;45300;-84
2022/08/29 06:43:33;;;;;;;;;4.00;3.25;;;;;20.27;44.19;101549.34;5062878;27;46708;-84
2022/08/29 06:45:59;;;;;;;;;2.00;1.00;;;;;20.39;44.31;101558.38;5062586;27;45841;-85
2022/08/29 06:48:25;;;;;;;;;2.25;1.00;;;;;20.42;44.41;101574.06;5080103;27;45378;-83
2022/08/29 06:50:51;;;;;;;;;1.00;1.00;;;;;20.38;43.54;101554.03;5062555;27;45436;-87
2022/08/29 06:53:17;;;;;;;;;3.25;1.75;;;;;20.42;44.34;101560.84;5062974;27;47244;-85
2022/08/29 06:55:43;;;;;;;;;3.50;2.25;;;;;20.43;43.99;101561.69;5084575;27;45405;-85
2022/08/29 06:58:08;;;;;;;;;4.50;2.00;;;;;20.45;43.67;101560.66;5064825;27;68799;-83
2022/08/29 07:00:33;;;;;;;;;1.25;1.00;;;;;20.41;44.66;101558.28;5080547;27;66079;-83
2022/08/29 07:02:58;;;;;;;;;2.00;1.00;;;;;20.43;43.72;101561.69;5096701;27;74404;-82
2022/08/29 07:05:24;;;;;;;;;2.50;2.00;;;;;20.42;43.71;101562.63;5097847;27;45313;-84
2022/08/29 07:07:50;;;;;;;;;3.00;2.00;;;;;20.44;43.61;101569.53;5062302;27;45327;-81
2022/08/29 07:10:16;;;;;;;;;5.75;2.50;;;;;20.43;43.39;101561.69;5097285;27;45282;-80
2022/08/29 07:12:42;;;;;;;;;1.75;1.25;;;;;20.48;44.89;101568.41;5097105;27;47421;-80
2022/08/29 07:15:08;;;;;;;;;2.75;2.75;;;;;20.51;44.17;101562.13;5079028;27;45406;-81
2022/08/29 07:17:33;;;;;;;;;5.00;2.00;;;;;20.49;45.61;101556.91;5079199;27;45549;-80
2022/08/29 07:19:59;;;;;;;;;2.25;2.00;;;;;20.55;43.82;101565.44;5097203;27;45364;-80
2022/08/29 07:22:25;;;;;;;;;3.75;1.00;;;;;20.58;43.91;101568.75;5096021;27;74448;-81
2022/08/29 07:24:50;;;;;;;;;3.75;3.00;;;;;20.54;43.74;101561.06;5096799;27;45460;-80
2022/08/29 07:27:16;;;;;;;;;3.25;1.75;;;;;20.62;44.34;101570.31;5079018;27;45349;-80
2022/08/29 07:29:41;;;;;;;;;2.00;2.00;;;;;20.66;44.32;101568.34;5096235;27;69205;-80
2022/08/29 07:32:06;;;;;;;;;0.00;0.00;;;;;20.66;43.82;101561.25;5095807;27;67665;-80
2022/08/29 07:34:32;;;;;;;;;4.50;2.00;;;;;20.66;44.40;101571.81;5078720;27;45330;-80
2022/08/29 07:36:57;;;;;;;;;2.00;1.25;;;;;20.70;43.37;101564.56;5096899;27;45320;-82
2022/08/29 07:39:23;;;;;;;;;4.75;1.75;;;;;20.70;43.85;101564.56;5096662;27;45512;-82
2022/08/29 07:41:48;;;;;;;;;2.25;1.50;;;;;20.72;43.64;101565.31;5087815;27;45486;-83
2022/08/29 07:44:14;;;;;;;;;2.00;1.50;;;;;20.76;43.76;101566.84;5110027;27;68962;-82
2022/08/29 07:46:41;;;;;;;;;1.50;1.50;;;;;20.82;43.60;101573.56;5081996;27;45416;-82
2022/08/29 07:49:06;;;;;;;;;2.25;2.00;;;;;20.83;43.34;101562.06;5074683;28;45564;-82
2022/08/29 07:51:32;;;;;;;;;4.00;2.00;;;;;20.84;43.85;101554.03;5075898;28;45417;-81
2022/08/29 07:53:58;;;;;;;;;3.50;1.00;;;;;20.91;43.47;101566.88;5074410;27;45409;-81
2022/08/29 07:56:28;;;;;;;;;2.00;2.00;;;;;20.92;43.09;101566.81;5096401;27;45336;-82
2022/08/29 07:58:55;;;;;;;;;3.00;2.00;;;;;20.99;43.04;101569.94;5096365;27;45576;-81
2022/08/29 08:01:20;;;;;;;;;2.00;2.00;;;;;20.99;42.89;101562.00;5095660;27;46371;-79
2022/08/29 08:03:46;;;;;;;;;2.75;1.75;;;;;21.07;42.79;101563.22;5109817;27;45454;-80
2022/08/29 08:06:12;;;;;;;;;4.75;2.00;;;;;21.16;42.80;101561.00;5098405;27;45459;-80
2022/08/29 08:08:38;;;;;;;;;2.00;1.00;;;;;21.16;42.75;101545.09;5132497;27;45422;-80
2022/08/29 08:11:05;;;;;;;;;4.50;2.00;;;;;21.24;43.07;101550.78;5116781;27;46673;-80
2022/08/29 08:13:31;;;;;;;;;3.25;1.75;;;;;21.32;42.48;101561.75;5108717;27;45959;-79
2022/08/29 08:15:57;;;;;;;;;3.25;2.50;;;;;21.37;42.29;101556.16;5097620;27;45396;-79
2022/08/29 08:18:24;;;;;;;;;1.00;1.00;;;;;21.40;42.30;101550.69;5116720;27;45403;-80
2022/08/29 08:20:49;;;;;;;;;3.00;3.00;;;;;21.48;42.60;101560.84;5116578;27;46203;-79
2022/08/29 08:23:15;;;;;;;;;2.75;2.75;;;;;21.54;42.31;101548.06;5114197;27;72238;-80
2022/08/29 08:25:41;;;;;;;;;2.25;1.00;;;;;21.62;42.96;101552.91;5131013;27;45399;-81
2022/08/29 08:28:06;;;;;;;;;3.25;1.50;;;;;21.72;41.88;101550.50;5116524;27;45425;-81
2022/08/29 08:30:33;;;;;;;;;5.00;2.00;;;;;21.76;42.76;101549.38;5115194;27;76577;-80
2022/08/29 08:32:59;;;;;;;;;3.00;2.25;;;;;21.84;43.96;101547.94;5102956;27;45425;-81
2022/08/29 08:35:24;;;;;;;;;3.25;2.00;;;;;21.91;41.82;101545.72;5095582;27;45436;-80
2022/08/29 08:37:49;;;;;;;;;5.00;2.75;;;;;21.94;41.38;101548.19;5095486;27;45455;-81
2022/08/29 08:40:19;;;;;;;;;3.00;2.25;;;;;22.00;41.31;101534.53;5095337;27;58653;-81
2022/08/29 08:42:45;;;;;;;;;3.50;3.00;;;;;22.03;41.27;101546.75;5077261;27;45677;-80
2022/08/29 08:45:16;;;;;;;;;2.25;2.00;;;;;22.11;41.46;101541.81;5095752;27;45343;-80
2022/08/29 08:47:57;;;;;;;;;3.00;2.00;;;;;22.14;40.95;101538.97;5077229;27;45409;-81
2022/08/29 08:50:43;;;;;;;;;5.75;2.00;;;;;22.26;41.03;101541.78;5095366;27;46629;-81
2022/08/29 08:53:27;;;;;;;;;2.00;2.00;;;;;22.34;42.55;101553.59;5094739;27;45298;-81
2022/08/29 08:55:55;;;;;;;;;2.00;2.00;;;;;22.42;41.11;101555.75;5080522;27;45570;-81
2022/08/29 08:58:31;;;;;;;;;4.25;3.00;;;;;22.47;40.64;101550.97;5081145;27;45356;-81
2022/08/29 09:01:02;;;;;;;;;1.50;1.00;;;;;22.54;40.34;101551.41;5061006;28;46202;-80
2022/08/29 09:03:49;;;;;;;;;3.50;2.00;;;;;22.61;40.19;101548.25;5067639;28;45690;-80
2022/08/29 09:06:25;;;;;;;;;2.25;2.00;;;;;22.66;39.94;101553.25;5047469;28;45461;-80
2022/08/29 09:09:24;;;;;;;;;6.75;3.00;;;;;22.70;39.94;101554.75;5066258;28;45417;-80
2022/08/29 09:12:03;;;;;;;;;5.00;2.50;;;;;22.79;40.40;101556.78;5059789;28;50025;-81
2022/08/29 09:14:41;;;;;;;;;3.00;2.00;;;;;22.85;39.91;101557.34;5059903;28;45803;-81
2022/08/29 09:17:14;;;;;;;;;3.50;1.50;;;;;22.99;39.66;101558.09;5057202;28;45432;-80
2022/08/29 09:19:40;;;;;;;;;6.25;2.50;;;;;23.15;39.77;101557.91;5058051;27;45543;-79
2022/08/29 09:22:15;;;;;;;;;5.50;2.75;;;;;23.32;39.42;101555.88;5079422;27;45808;-79
2022/08/29 09:24:52;;;;;;;;;6.25;2.25;;;;;23.48;39.25;101553.84;5075077;28;45790;-81
2022/08/29 09:27:29;;;;;;;;;4.00;2.25;;;;;23.58;38.99;101546.91;5048231;28;45263;-80
2022/08/29 09:30:10;;;;;;;;;2.50;1.75;;;;;23.72;38.67;101556.56;5057804;28;45593;-80
2022/08/29 09:32:57;;;;;;;;;2.50;2.50;;;;;23.78;38.53;101547.31;5067480;27;45498;-80
2022/08/29 09:35:27;;;;;;;;;4.00;0.75;;;;;23.80;38.74;101556.03;5077284;28;45716;-78
2022/08/29 09:38:05;;;;;;;;;2.75;2.75;;;;;23.78;38.63;101553.47;5041918;28;45342;-80
2022/08/29 09:40:57;;;;;;;;;4.50;2.50;;;;;23.81;38.77;101554.22;5080224;27;45475;-80
2022/08/29 09:43:37;;;;;;;;;5.25;2.00;;;;;23.84;39.16;101554.84;5077633;28;45349;-80
2022/08/29 09:46:22;;;;;;;;;3.75;2.50;;;;;23.88;38.34;101555.50;5077951;27;45402;-83
2022/08/29 09:48:56;;;;;;;;;2.00;2.00;;;;;23.92;37.97;101557.84;5061492;28;45533;-81
2022/08/29 09:51:27;;;;;;;;;3.25;3.25;;;;;23.97;38.96;101549.50;5057559;28;45386;-80
2022/08/29 09:54:09;;;;;;;;;3.50;3.00;;;;;24.04;38.62;101549.91;5057943;28;47267;-81
2022/08/29 09:56:36;;;;;;;;;2.25;1.75;;;;;24.07;38.21;101536.38;5080447;27;45828;-81
2022/08/29 09:59:10;;;;;;;;;3.25;2.25;;;;;24.11;38.41;101545.84;5079844;27;45389;-82
2022/08/29 10:01:37;;;;;;;;;3.25;3.00;;;;;24.11;38.08;101530.72;5079555;27;45433;-82
2022/08/29 10:04:05;;;;;;;;;3.25;3.00;;;;;24.20;38.33;101529.22;5092247;27;45495;-82
2022/08/29 10:06:33;;;;;;;;;3.25;3.00;;;;;24.28;37.88;101539.28;5057853;28;45335;-82
2022/08/29 10:09:09;;;;;;;;;4.25;2.00;;;;;24.34;38.39;101531.69;5059435;28;45533;-82
2022/08/29 10:11:48;;;;;;;;;2.50;2.00;;;;;24.35;38.04;101527.22;5070480;27;45582;-81
2022/08/29 10:14:22;;;;;;;;;3.00;2.75;;;;;24.45;37.89;101546.00;5079348;27;45556;-81
2022/08/29 10:18:19;;;;;;;;;5.00;3.00;;;;;24.46;37.82;101535.25;5079315;27;45321;-80
2022/08/29 10:19:45;;;;;;;;;3.75;3.00;;;;;24.52;37.96;101540.13;5079158;27;45460;-81
2022/08/29 10:22:28;;;;;;;;;6.50;4.75;;;;;24.58;39.55;101536.16;5095524;27;45460;-81
2022/08/29 10:24:56;;;;;;;;;4.00;3.75;;;;;24.65;37.69;101534.72;5078899;27;47609;-81
2022/08/29 10:27:38;;;;;;;;;5.75;3.00;;;;;24.74;37.61;101533.19;5097286;27;45419;-81
2022/08/29 10:30:13;;;;;;;;;3.00;3.00;;;;;24.84;37.46;101528.00;5079518;27;45519;-80
2022/08/29 10:33:00;;;;;;;;;4.75;3.00;;;;;24.92;37.25;101521.13;5078481;27;45392;-80
2022/08/29 10:35:39;;;;;;;;;5.00;4.00;;;;;25.04;37.22;101519.31;5095913;27;46638;-80
2022/08/29 10:38:27;;;;;;;;;4.00;3.00;;;;;25.15;37.10;101514.94;5076526;27;45734;-81
2022/08/29 10:40:57;;;;;;;;;3.00;3.00;;;;;25.23;36.98;101516.06;5070747;27;45264;-81
2022/08/29 10:43:25;;;;;;;;;3.50;3.50;;;;;25.33;37.10;101524.19;5099671;27;45468;-82
2022/08/29 10:46:03;;;;;;;;;4.00;4.00;;;;;25.43;37.14;101529.66;5117890;27;46549;-80
2022/08/29 10:48:38;;;;;;;;;7.25;4.00;;;;;25.53;36.74;101524.44;5084498;27;45345;-79
2022/08/29 10:51:06;;;;;;;;;3.50;3.00;;;;;25.58;36.54;101516.91;5066127;28;45502;-79
2022/08/29 10:53:45;;;;;;;;;6.00;3.00;;;;;25.66;36.58;101517.13;5104106;27;45323;-78
2022/08/29 10:56:27;;;;;;;;;6.00;5.25;;;;;25.77;36.44;101521.59;5097675;27;47401;-79
2022/08/29 10:59:06;;;;;;;;;3.00;3.00;;;;;25.86;36.36;101507.53;5088298;27;45324;-77
2022/08/29 11:02:00;;;;;;;;;1.75;1.50;;;;;25.95;36.08;101511.31;5095647;27;45444;-81
2022/08/29 11:04:30;;;;;;;;;4.00;3.00;;;;;26.07;36.22;101512.94;5094431;27;45464;-80
2022/08/29 11:07:15;;;;;;;;;7.00;4.00;;;;;26.12;35.89;101497.41;5095874;27;45731;-81
2022/08/29 11:09:50;;;;;;;;;3.75;3.00;;;;;26.21;35.75;101507.31;5095592;27;45876;-80
2022/08/29 11:12:39;;;;;;;;;5.75;4.00;;;;;26.40;35.47;101508.44;5095821;27;45484;-80
2022/08/29 11:15:19;;;;;;;;;6.25;4.50;;;;;26.54;35.43;101507.25;5096931;27;45505;-80
2022/08/29 11:17:57;;;;;;;;;4.25;3.75;;;;;26.70;34.96;101507.69;5096121;27;45417;-77
2022/08/29 11:20:29;;;;;;;;;6.50;3.25;;;;;26.84;35.04;101494.00;5095675;27;45770;-79
2022/08/29 11:23:07;;;;;;;;;4.25;3.75;;;;;26.97;34.77;101500.97;5095772;27;45419;-78
2022/08/29 11:25:34;;;;;;;;;3.25;3.00;;;;;27.16;34.65;101501.06;5095682;27;45581;-78
2022/08/29 11:28:05;;;;;;;;;10.75;3.50;;;;;27.33;34.45;101504.09;5096106;27;46449;-79
2022/08/29 11:30:36;;;;;;;;;3.25;3.00;;;;;27.55;33.89;101498.53;5093329;27;45353;-78
2022/08/29 11:33:07;;;;;;;;;5.25;4.75;;;;;27.79;33.29;101484.78;5085960;27;45538;-78
2022/08/29 11:35:51;;;;;;;;;3.25;3.25;;;;;28.18;32.86;101505.41;5100789;27;45702;-76